Time,TemperatureF,DewpointF,PressureIn,WindDirection,WindDirectionDegrees,WindSpeedMPH,WindSpeedGustMPH,Humidity,HourlyPrecipIn,Conditions,Clouds,dailyrainin,SolarRadiationWatts/m^2,SoftwareType,DateUTC
2013-03-24 00:00:00,10.0,7.0,-100.00,SSE,168,0.0,2.0,88,-99.99,,,-99.99,0.000000,,2013-03-24 06:00:00,
2013-03-24 01:00:00,9.0,-99.9,-100.00,North,-999,-999.0,-999.0,-999,-99.99,,,-99.99,,,2013-03-24 07:00:00,
2013-03-24 01:53:00,9.0,-99.9,-100.00,North,-999,-999.0,-999.0,-999,-99.99,,,-99.99,,,2013-03-24 07:53:00,
2013-03-24 02:00:00,8.0,5.0,-100.00,SSE,154,1.0,2.0,87,-99.99,,,-99.99,0.000000,,2013-03-24 08:00:00,
2013-03-24 03:00:00,10.0,7.0,-100.00,ESE,122,1.0,2.0,87,-99.99,,,-99.99,0.000000,,2013-03-24 09:00:00,
2013-03-24 04:00:00,7.0,4.0,-100.00,SE,142,1.0,2.0,85,-99.99,,,-99.99,0.000000,,2013-03-24 10:00:00,
2013-03-24 05:00:00,7.0,4.0,-100.00,SSE,151,1.0,2.0,86,-99.99,,,-99.99,0.000000,,2013-03-24 11:00:00,
2013-03-24 06:00:00,7.0,3.0,-100.00,SSE,156,1.0,2.0,85,-99.99,,,-99.99,0.000000,,2013-03-24 12:00:00,
2013-03-24 07:00:00,6.0,2.0,-100.00,SSE,157,2.0,3.0,83,-99.99,,,-99.99,0.000000,,2013-03-24 13:00:00,
2013-03-24 08:00:00,8.0,5.0,-100.00,SSE,149,1.0,3.0,84,-99.99,,,-99.99,5.800000,,2013-03-24 14:00:00,
2013-03-24 09:00:00,17.0,7.0,-100.00,ESE,119,1.0,3.0,67,-99.99,,,-99.99,22.299999,,2013-03-24 15:00:00,
2013-03-24 10:00:00,20.0,0.0,-100.00,NNE,20,2.0,7.0,42,-99.99,,,0.00,101.699997,,2013-03-24 16:00:00,
2013-03-24 11:00:00,22.0,-2.0,-100.00,NNE,14,2.0,7.0,33,-99.99,,,0.00,495.700012,,2013-03-24 17:00:00,
2013-03-24 12:00:00,25.0,-1.0,-100.00,NNE,14,3.0,9.0,31,-99.99,,,0.00,652.299988,,2013-03-24 18:00:00,
2013-03-24 13:00:00,29.0,1.0,-100.00,North,6,3.0,8.0,30,-99.99,,,0.00,703.900024,,2013-03-24 19:00:00,
2013-03-24 14:00:00,29.0,1.0,-100.00,NNE,25,3.0,7.0,29,-99.99,,,0.00,861.700012,,2013-03-24 20:00:00,
2013-03-24 15:00:00,32.0,2.0,-100.00,NNE,16,4.0,9.0,27,-99.99,,,0.01,907.799988,,2013-03-24 21:00:00,
2013-03-24 16:00:00,31.0,-1.0,-100.00,NNE,15,4.0,9.0,25,-99.99,,,0.01,590.400024,,2013-03-24 22:00:00,
2013-03-24 17:00:00,32.0,0.0,-100.00,NNE,25,3.0,10.0,25,-99.99,,,0.00,379.700012,,2013-03-24 23:00:00,
2013-03-24 18:00:00,29.0,-1.0,-100.00,NNE,20,3.0,9.0,27,-99.99,,,0.01,144.399994,,2013-03-25 00:00:00,
2013-03-24 19:00:00,27.0,-1.0,-100.00,NNE,23,3.0,10.0,28,-99.99,,,0.00,49.200001,,2013-03-25 01:00:00,
2013-03-24 20:00:00,25.0,-1.0,-100.00,NNE,24,2.0,6.0,31,-99.99,,,0.00,4.000000,,2013-03-25 02:00:00,
2013-03-24 21:00:00,23.0,-1.0,-100.00,NE,43,1.0,4.0,35,-99.99,,,0.00,0.000000,,2013-03-25 03:00:00,
2013-03-24 22:00:00,23.0,2.0,-100.00,NE,47,1.0,4.0,39,-99.99,,,0.01,0.000000,,2013-03-25 04:00:00,
2013-03-24 23:00:00,19.0,3.0,-100.00,North,3,1.0,4.0,50,-99.99,,,0.00,0.000000,,2013-03-25 05:00:00,